createdAt,value
2019-02-11T00:02:07.798Z,8.02
2019-02-11T00:04:39.458Z,8.04
2019-02-11T00:07:11.029Z,8.19
2019-02-11T00:09:42.683Z,8.25
2019-02-11T00:12:14.251Z,8.17
2019-02-11T00:14:45.907Z,8.19
2019-02-11T00:17:17.553Z,8.14
2019-02-11T00:19:49.163Z,8.17
2019-02-11T00:22:20.864Z,8.30
2019-02-11T00:24:52.435Z,8.26
2019-02-11T00:27:24.191Z,8.23
2019-02-11T00:29:55.898Z,8.27
2019-02-11T00:32:27.899Z,8.23
2019-02-11T00:34:59.623Z,8.19
2019-02-11T00:37:31.561Z,8.16
2019-02-11T00:40:03.121Z,8.23
2019-02-11T00:42:34.914Z,8.23
2019-02-11T00:45:08.706Z,8.19
2019-02-11T00:47:40.377Z,8.08
2019-02-11T00:50:12.520Z,8.08
2019-02-11T00:52:44.151Z,8.12
2019-02-11T00:55:15.796Z,8.21
2019-02-11T00:57:47.516Z,8.17
2019-02-11T01:00:19.242Z,8.28
2019-02-11T01:02:51.645Z,8.29
2019-02-11T01:05:23.229Z,8.30
2019-02-11T01:07:54.827Z,8.38
2019-02-11T01:10:26.504Z,8.30
2019-02-11T01:12:58.137Z,8.31
2019-02-11T01:15:29.732Z,8.43
2019-02-11T01:18:01.567Z,8.47
2019-02-11T01:20:33.160Z,8.47
2019-02-11T01:23:04.775Z,8.45
2019-02-11T01:25:38.246Z,8.50
2019-02-11T01:28:09.937Z,8.49
2019-02-11T01:30:41.627Z,8.57
2019-02-11T01:33:13.463Z,8.56
2019-02-11T01:35:45.297Z,8.66
2019-02-11T01:38:16.884Z,8.53
2019-02-11T01:40:48.534Z,8.46
2019-02-11T01:43:20.129Z,8.43
2019-02-11T01:45:51.844Z,8.62
2019-02-11T01:48:24.152Z,8.61
2019-02-11T01:50:55.741Z,8.72
2019-02-11T01:53:27.401Z,8.63
2019-02-11T01:55:59.045Z,8.70
2019-02-11T01:58:30.802Z,8.62
2019-02-11T02:01:02.437Z,8.43
2019-02-11T02:03:34.318Z,8.47
2019-02-11T02:06:06.061Z,8.47
2019-02-11T02:08:37.708Z,8.45
2019-02-11T02:11:09.290Z,8.41
2019-02-11T02:13:44.919Z,8.31
2019-02-11T02:16:14.110Z,8.28
2019-02-11T02:18:45.977Z,8.30
2019-02-11T02:21:17.659Z,8.44
2019-02-11T02:23:49.351Z,8.38
2019-02-11T02:26:21.008Z,8.47
2019-02-11T02:28:52.584Z,8.40
2019-02-11T02:31:24.236Z,8.48
2019-02-11T02:33:56.206Z,8.39
2019-02-11T02:36:28.036Z,8.21
2019-02-11T02:38:59.603Z,8.36
2019-02-11T02:41:31.249Z,8.31
2019-02-11T02:44:02.910Z,8.14
2019-02-11T02:46:35.282Z,8.14
2019-02-11T02:49:07.372Z,8.11
2019-02-11T02:51:39.101Z,8.10
2019-02-11T02:54:10.749Z,8.08
2019-02-11T02:56:42.316Z,8.27
2019-02-11T02:59:13.907Z,8.38
2019-02-11T03:01:45.494Z,8.31
2019-02-11T03:04:17.115Z,8.30
2019-02-11T03:06:49.123Z,8.24
2019-02-11T03:09:20.693Z,8.30
2019-02-11T03:11:52.284Z,8.34
2019-02-11T03:14:23.921Z,8.38
2019-02-11T03:16:55.491Z,8.39
2019-02-11T03:19:27.067Z,8.44
2019-02-11T03:21:58.768Z,8.44
2019-02-11T03:24:30.429Z,8.40
2019-02-11T03:27:02.022Z,8.43
2019-02-11T03:29:33.685Z,8.46
2019-02-11T03:32:05.272Z,8.34
2019-02-11T03:34:39.646Z,8.42
2019-02-11T03:37:11.315Z,8.44
2019-02-11T03:39:42.925Z,8.30
2019-02-11T03:42:14.504Z,8.23
2019-02-11T03:44:46.155Z,8.31
2019-02-11T03:47:17.730Z,8.28
2019-02-11T03:49:49.386Z,8.41
2019-02-11T03:52:20.960Z,8.28
2019-02-11T03:54:52.934Z,8.34
2019-02-11T03:57:24.568Z,8.37
2019-02-11T03:59:56.154Z,8.45
2019-02-11T04:02:28.422Z,8.29
2019-02-11T04:05:00.285Z,8.31
2019-02-11T04:07:31.920Z,8.22
2019-02-11T04:10:04.233Z,8.30
2019-02-11T04:12:35.824Z,8.16
2019-02-11T04:15:09.426Z,8.36
2019-02-11T04:17:41.018Z,8.47
2019-02-11T04:20:13.651Z,8.51
2019-02-11T04:22:45.292Z,8.43
2019-02-11T04:25:16.953Z,8.50
2019-02-11T04:27:48.609Z,8.50
2019-02-11T04:30:20.369Z,8.48
2019-02-11T04:32:52.063Z,8.57
2019-02-11T04:35:23.654Z,8.74
2019-02-11T04:37:55.308Z,8.54
2019-02-11T04:40:26.928Z,8.66
2019-02-11T04:42:58.553Z,8.58
2019-02-11T04:45:30.134Z,8.57
2019-02-11T04:48:01.845Z,8.65
2019-02-11T04:50:33.406Z,8.71
2019-02-11T04:53:04.988Z,8.77
2019-02-11T04:55:36.592Z,8.51
2019-02-11T04:58:08.223Z,8.44
2019-02-11T05:00:39.946Z,8.31
2019-02-11T05:03:13.176Z,8.26
2019-02-11T05:05:44.771Z,8.16
2019-02-11T05:08:16.396Z,8.05
2019-02-11T05:10:47.972Z,8.12
2019-02-11T05:13:19.705Z,8.11
2019-02-11T05:15:51.346Z,8.04
2019-02-11T05:18:23.382Z,7.86
2019-02-11T05:20:55.187Z,7.98
2019-02-11T05:23:26.750Z,7.80
2019-02-11T05:25:58.457Z,7.70
2019-02-11T05:28:30.014Z,7.71
2019-02-11T05:31:01.694Z,7.73
2019-02-11T05:33:33.358Z,7.74
2019-02-11T05:36:04.994Z,7.75
2019-02-11T05:38:36.539Z,7.73
2019-02-11T05:41:08.268Z,7.69
2019-02-11T05:43:39.893Z,7.80
2019-02-11T05:46:11.530Z,7.78
2019-02-11T05:48:43.079Z,7.74
2019-02-11T05:51:14.628Z,7.77
2019-02-11T05:53:46.186Z,7.82
2019-02-11T05:56:17.759Z,7.71
2019-02-11T05:58:49.359Z,7.75
2019-02-11T06:01:20.983Z,7.61
2019-02-11T06:03:52.558Z,7.59
2019-02-11T06:06:24.148Z,7.77
2019-02-11T06:08:55.749Z,7.80
2019-02-11T06:11:27.389Z,7.67
2019-02-11T06:13:58.973Z,7.41
2019-02-11T06:16:30.527Z,7.25
2019-02-11T06:19:02.207Z,6.97
2019-02-11T06:21:33.853Z,6.80
2019-02-11T06:24:05.425Z,6.85
2019-02-11T06:26:37.057Z,6.99
2019-02-11T06:29:08.607Z,7.06
2019-02-11T06:31:40.171Z,7.05
2019-02-11T06:34:11.817Z,6.87
2019-02-11T06:36:43.454Z,6.76
2019-02-11T06:39:15.062Z,6.85
2019-02-11T06:41:46.712Z,6.75
2019-02-11T06:44:18.359Z,6.59
2019-02-11T06:46:52.691Z,6.65
2019-02-11T06:49:24.276Z,6.61
2019-02-11T06:51:55.850Z,6.50
2019-02-11T06:54:27.491Z,6.51
2019-02-11T06:56:59.129Z,6.38
2019-02-11T06:59:30.771Z,6.43
2019-02-11T07:02:02.436Z,6.45
2019-02-11T07:04:34.081Z,6.38
2019-02-11T07:07:05.724Z,6.45
2019-02-11T07:09:37.290Z,6.53
2019-02-11T07:12:08.960Z,6.44
2019-02-11T07:14:40.603Z,6.37
2019-02-11T07:17:12.203Z,6.46
2019-02-11T07:19:43.782Z,6.35
2019-02-11T07:22:15.345Z,6.52
2019-02-11T07:24:46.902Z,6.65
2019-02-11T07:27:18.482Z,6.38
2019-02-11T07:29:50.071Z,6.31
2019-02-11T07:32:21.749Z,6.33
2019-02-11T07:34:54.180Z,6.19
2019-02-11T07:37:25.775Z,6.26
2019-02-11T07:39:57.428Z,6.24
2019-02-11T07:42:33.617Z,6.19
2019-02-11T07:45:12.883Z,6.10
2019-02-11T07:47:46.152Z,5.93
2019-02-11T07:50:17.720Z,6.06
2019-02-11T07:52:49.299Z,6.05
2019-02-11T07:55:20.968Z,6.24
2019-02-11T07:57:52.550Z,6.25
2019-02-11T08:00:25.980Z,6.23
2019-02-11T08:02:57.536Z,6.33
2019-02-11T08:05:29.184Z,6.28
2019-02-11T08:08:00.765Z,6.18
2019-02-11T08:10:32.401Z,6.03
2019-02-11T08:13:04.082Z,5.73
2019-02-11T08:15:38.651Z,5.63
2019-02-11T08:18:08.926Z,5.77
2019-02-11T08:20:40.571Z,5.99
2019-02-11T08:23:13.811Z,5.61
2019-02-11T08:25:45.519Z,5.53
2019-02-11T08:28:19.494Z,5.15
2019-02-11T08:30:50.381Z,5.01
2019-02-11T08:33:22.019Z,5.12
2019-02-11T08:35:53.607Z,5.07
2019-02-11T08:38:25.162Z,4.85
2019-02-11T08:40:56.747Z,4.70
2019-02-11T08:43:28.463Z,4.72
2019-02-11T08:46:00.142Z,4.50
2019-02-11T08:48:31.730Z,4.41
2019-02-11T08:51:03.436Z,4.43
2019-02-11T08:53:35.069Z,4.57
2019-02-11T08:56:06.710Z,4.53
2019-02-11T08:58:38.475Z,4.53
2019-02-11T09:01:10.115Z,4.46
2019-02-11T09:03:41.818Z,4.31
2019-02-11T09:06:13.928Z,4.37
2019-02-11T09:08:45.518Z,4.44
2019-02-11T09:11:17.099Z,4.44
2019-02-11T09:13:48.757Z,4.44
2019-02-11T09:16:20.512Z,4.48
2019-02-11T09:18:52.197Z,4.49
2019-02-11T09:21:23.838Z,4.54
2019-02-11T09:23:55.473Z,4.58
2019-02-11T09:26:27.159Z,4.68
2019-02-11T09:28:58.807Z,4.65
2019-02-11T09:31:30.448Z,4.64
2019-02-11T09:34:02.020Z,4.77
2019-02-11T09:36:35.309Z,4.88
2019-02-11T09:39:07.445Z,4.89
2019-02-11T09:41:39.009Z,4.93
2019-02-11T09:44:10.576Z,4.98
2019-02-11T09:46:42.213Z,5.11
2019-02-11T09:49:13.962Z,5.24
2019-02-11T09:51:46.689Z,5.33
2019-02-11T09:54:18.397Z,5.42
2019-02-11T09:56:50.128Z,5.47
2019-02-11T09:59:22.085Z,5.54
2019-02-11T10:01:53.733Z,5.55
2019-02-11T10:04:25.508Z,5.70
2019-02-11T10:06:57.349Z,5.70
2019-02-11T10:09:28.990Z,5.66
2019-02-11T10:12:00.873Z,5.81
2019-02-11T10:14:32.711Z,5.76
2019-02-11T10:17:04.825Z,5.63
2019-02-11T10:19:36.431Z,5.68
2019-02-11T10:22:08.004Z,5.67
2019-02-11T10:24:39.781Z,6.05
2019-02-11T10:27:11.725Z,6.10
2019-02-11T10:29:43.301Z,6.04
2019-02-11T10:32:14.957Z,6.11
2019-02-11T10:34:46.699Z,6.29
2019-02-11T10:37:18.288Z,6.58
2019-02-11T10:39:49.894Z,6.52
2019-02-11T10:42:21.548Z,6.50
2019-02-11T10:44:53.205Z,6.67
2019-02-11T10:47:24.918Z,7.07
2019-02-11T10:49:56.486Z,7.01
2019-02-11T10:52:28.054Z,7.06
2019-02-11T10:54:59.644Z,7.19
2019-02-11T10:57:31.220Z,6.96
2019-02-11T11:00:02.869Z,6.59
2019-02-11T11:02:36.031Z,6.72
2019-02-11T11:05:11.460Z,6.69
2019-02-11T11:07:43.405Z,6.55
2019-02-11T11:10:19.797Z,6.57
2019-02-11T11:12:51.470Z,6.77
2019-02-11T11:15:23.208Z,6.81
2019-02-11T11:17:54.888Z,6.59
2019-02-11T11:20:27.729Z,6.61
2019-02-11T11:22:59.305Z,6.53
2019-02-11T11:25:30.972Z,6.58
2019-02-11T11:28:02.645Z,6.57
2019-02-11T11:30:34.255Z,6.79
2019-02-11T11:33:05.822Z,6.75
2019-02-11T11:35:37.683Z,6.78
2019-02-11T11:38:09.598Z,6.87
2019-02-11T11:40:42.656Z,6.83
2019-02-11T11:43:14.371Z,7.02
2019-02-11T11:45:57.971Z,7.06
2019-02-11T11:48:43.867Z,7.18
2019-02-11T11:51:18.557Z,7.12
2019-02-11T11:53:52.356Z,7.19
2019-02-11T11:56:25.837Z,7.14
2019-02-11T11:58:58.226Z,7.20
2019-02-11T12:01:29.850Z,7.06
2019-02-11T12:04:01.882Z,6.91
2019-02-11T12:06:35.061Z,6.82
2019-02-11T12:09:07.108Z,6.70
2019-02-11T12:11:38.789Z,6.76
2019-02-11T12:14:10.387Z,6.95
2019-02-11T12:16:56.293Z,7.04
2019-02-11T12:19:15.459Z,7.12
2019-02-11T12:21:47.097Z,7.36
2019-02-11T12:24:18.677Z,7.09
2019-02-11T12:26:50.259Z,7.11
2019-02-11T12:29:21.970Z,7.29
2019-02-11T12:31:53.521Z,7.50
2019-02-11T12:34:25.143Z,7.35
2019-02-11T12:36:56.785Z,7.39
2019-02-11T12:39:28.518Z,7.77
2019-02-11T12:42:00.381Z,7.99
2019-02-11T12:44:32.098Z,7.67
2019-02-11T12:47:13.883Z,7.26
2019-02-11T12:49:37.096Z,7.38
2019-02-11T12:52:08.744Z,7.19
2019-02-11T12:54:40.381Z,7.25
2019-02-11T12:57:12.215Z,7.13
2019-02-11T12:59:44.868Z,7.23
2019-02-11T13:02:17.496Z,7.33
2019-02-11T13:04:49.074Z,7.20
2019-02-11T13:07:20.742Z,7.38
2019-02-11T13:09:52.329Z,7.45
2019-02-11T13:12:24.290Z,7.29
2019-02-11T13:15:09.432Z,7.50
2019-02-11T13:17:41.059Z,7.41
2019-02-11T13:20:17.600Z,7.21
2019-02-11T13:22:49.312Z,7.37
2019-02-11T13:25:20.890Z,7.19
2019-02-11T13:27:52.454Z,7.28
2019-02-11T13:30:26.066Z,7.45
2019-02-11T13:32:59.875Z,7.50
2019-02-11T13:35:43.603Z,7.33
2019-02-11T13:38:15.245Z,7.19
2019-02-11T13:40:46.929Z,7.07
2019-02-11T13:43:19.573Z,7.20
2019-02-11T13:45:51.201Z,7.10
2019-02-11T13:48:23.329Z,7.05
2019-02-11T13:50:54.840Z,7.02
2019-02-11T13:53:26.434Z,7.23
2019-02-11T13:55:59.063Z,7.32
2019-02-11T13:58:30.779Z,7.07
2019-02-11T14:01:02.427Z,6.97
2019-02-11T14:03:34.566Z,6.74
2019-02-11T14:06:06.287Z,6.55
2019-02-11T14:08:37.904Z,6.53
2019-02-11T14:11:09.577Z,6.49
2019-02-11T14:13:41.242Z,6.50
2019-02-11T14:16:12.807Z,6.54
2019-02-11T14:18:44.379Z,6.55
2019-02-11T14:21:16.432Z,6.51
2019-02-11T14:23:48.075Z,6.40
2019-02-11T14:26:19.895Z,6.39
2019-02-11T14:28:51.582Z,6.31
2019-02-11T14:31:23.386Z,6.34
2019-02-11T14:33:55.216Z,6.18
2019-02-11T14:36:27.109Z,6.03
2019-02-11T14:38:59.065Z,6.21
2019-02-11T14:41:30.854Z,6.07
2019-02-11T14:44:02.766Z,5.92
2019-02-11T14:46:34.440Z,5.95
2019-02-11T14:49:06.193Z,5.89
2019-02-11T14:51:38.196Z,5.86
2019-02-11T14:54:10.054Z,5.88
2019-02-11T14:56:42.966Z,5.90
2019-02-11T14:59:14.537Z,5.81
2019-02-11T15:01:46.219Z,5.79
2019-02-11T15:04:18.305Z,5.69
2019-02-11T15:06:49.883Z,5.52
2019-02-11T15:09:21.505Z,5.39
2019-02-11T15:11:53.167Z,5.24
2019-02-11T15:14:24.916Z,5.15
2019-02-11T15:17:09.548Z,4.90
2019-02-11T15:19:41.335Z,4.70
2019-02-11T15:22:12.958Z,4.66
2019-02-11T15:24:44.943Z,4.63
2019-02-11T15:27:17.501Z,4.62
2019-02-11T15:29:49.344Z,4.69
2019-02-11T15:32:22.573Z,4.77
2019-02-11T15:34:55.638Z,4.86
2019-02-11T15:37:29.584Z,4.87
2019-02-11T15:40:01.277Z,4.96
2019-02-11T15:42:34.091Z,4.97
2019-02-11T15:45:10.441Z,4.99
2019-02-11T15:47:42.220Z,4.91
2019-02-11T15:50:18.319Z,4.84
2019-02-11T15:52:50.054Z,4.86
2019-02-11T15:55:22.162Z,4.91
2019-02-11T15:57:53.767Z,4.93
2019-02-11T16:00:27.065Z,4.99
2019-02-11T16:02:59.769Z,5.00
2019-02-11T16:05:31.498Z,4.97
2019-02-11T16:08:03.647Z,4.93
2019-02-11T16:10:35.330Z,5.03
2019-02-11T16:13:07.411Z,5.02
2019-02-11T16:15:39.069Z,4.87
2019-02-11T16:18:10.621Z,4.82
2019-02-11T16:20:42.185Z,4.74
2019-02-11T16:23:13.920Z,4.68
2019-02-11T16:25:46.237Z,4.78
2019-02-11T16:28:17.879Z,4.83
2019-02-11T16:30:49.470Z,4.83
2019-02-11T16:33:21.054Z,4.88
2019-02-11T16:35:52.769Z,4.86
2019-02-11T16:38:27.681Z,4.88
2019-02-11T16:40:59.391Z,4.92
2019-02-11T16:43:32.724Z,4.95
2019-02-11T16:46:04.300Z,4.94
2019-02-11T16:48:35.902Z,5.00
2019-02-11T16:51:07.455Z,5.04
2019-02-11T16:53:39.386Z,5.07
2019-02-11T16:56:11.863Z,5.16
2019-02-11T16:58:43.492Z,5.12
2019-02-11T17:01:15.224Z,5.18
2019-02-11T17:03:46.870Z,5.13
2019-02-11T17:06:18.601Z,5.30
2019-02-11T17:08:51.334Z,5.21
2019-02-11T17:11:23.526Z,5.24
2019-02-11T17:13:55.177Z,5.23
2019-02-11T17:16:26.792Z,5.32
2019-02-11T17:18:58.399Z,5.45
2019-02-11T17:21:31.944Z,5.38
2019-02-11T17:24:04.078Z,5.34
2019-02-11T17:26:35.667Z,5.34
2019-02-11T17:29:07.266Z,5.31
2019-02-11T17:31:39.475Z,5.43
2019-02-11T17:34:13.755Z,5.37
2019-02-11T17:36:45.463Z,5.25
2019-02-11T17:39:18.354Z,5.45
2019-02-11T17:41:50.145Z,5.38
2019-02-11T17:44:21.899Z,5.61
2019-02-11T17:46:53.600Z,5.57
2019-02-11T17:49:25.340Z,5.68
2019-02-11T17:51:57.008Z,5.41
2019-02-11T17:54:29.050Z,5.25
2019-02-11T17:57:04.824Z,5.22
2019-02-11T17:59:38.348Z,5.08
2019-02-11T18:02:11.641Z,4.94
2019-02-11T18:04:44.074Z,4.93
2019-02-11T18:07:15.650Z,5.11
2019-02-11T18:09:50.203Z,5.04
2019-02-11T18:12:21.849Z,4.83
2019-02-11T18:14:53.448Z,4.81
2019-02-11T18:17:25.176Z,4.69
2019-02-11T18:19:56.793Z,4.73
2019-02-11T18:22:28.513Z,4.70
2019-02-11T18:25:00.371Z,4.76
2019-02-11T18:27:38.023Z,4.72
2019-02-11T18:30:17.254Z,4.77
2019-02-11T18:32:52.513Z,4.74
2019-02-11T18:35:24.321Z,4.68
2019-02-11T18:37:56.054Z,4.67
2019-02-11T18:40:27.628Z,4.66
2019-02-11T18:42:59.297Z,4.64
2019-02-11T18:45:30.901Z,4.67
2019-02-11T18:48:02.481Z,4.67
2019-02-11T18:50:34.118Z,4.60
2019-02-11T18:53:05.779Z,4.64
2019-02-11T18:55:37.582Z,4.61
2019-02-11T18:58:09.250Z,4.59
2019-02-11T19:00:41.269Z,4.51
2019-02-11T19:03:13.554Z,4.50
2019-02-11T19:05:45.342Z,4.47
2019-02-11T19:08:16.968Z,4.46
2019-02-11T19:10:48.585Z,4.43
2019-02-11T19:13:21.195Z,4.46
2019-02-11T19:15:52.779Z,4.46
2019-02-11T19:18:24.465Z,4.47
2019-02-11T19:20:56.291Z,4.48
2019-02-11T19:23:27.956Z,4.43
2019-02-11T19:25:59.656Z,4.42
2019-02-11T19:28:31.296Z,4.43
2019-02-11T19:31:03.014Z,4.43
2019-02-11T19:33:34.770Z,4.36
2019-02-11T19:36:06.507Z,4.40
2019-02-11T19:38:38.379Z,4.43
2019-02-11T19:41:10.016Z,4.37
2019-02-11T19:43:41.705Z,4.39
2019-02-11T19:46:13.343Z,4.38
2019-02-11T19:48:44.905Z,4.35
2019-02-11T19:51:16.490Z,4.27
2019-02-11T19:53:48.079Z,4.36
2019-02-11T19:56:19.669Z,4.26
2019-02-11T19:58:51.420Z,4.21
2019-02-11T20:01:23.388Z,4.19
2019-02-11T20:03:55.006Z,4.12
2019-02-11T20:06:26.595Z,4.08
2019-02-11T20:08:58.328Z,4.04
2019-02-11T20:11:30.031Z,3.99
2019-02-11T20:14:01.746Z,3.92
2019-02-11T20:16:34.359Z,3.91
2019-02-11T20:19:13.518Z,3.83
2019-02-11T20:21:45.169Z,3.84
2019-02-11T20:24:16.780Z,3.80
2019-02-11T20:26:48.413Z,3.82
2019-02-11T20:29:20.075Z,3.86
2019-02-11T20:31:52.169Z,3.89
2019-02-11T20:34:25.154Z,3.92
2019-02-11T20:36:56.914Z,3.92
2019-02-11T20:39:28.588Z,3.92
2019-02-11T20:42:00.252Z,3.92
2019-02-11T20:44:32.628Z,3.94
2019-02-11T20:47:04.400Z,3.95
2019-02-11T20:49:36.062Z,3.99
2019-02-11T20:52:07.691Z,4.01
2019-02-11T20:54:39.533Z,3.97
2019-02-11T20:57:11.319Z,3.88
2019-02-11T20:59:42.972Z,3.89
2019-02-11T21:02:15.874Z,3.88
2019-02-11T21:04:49.248Z,3.86
2019-02-11T21:07:21.895Z,3.86
2019-02-11T21:09:53.477Z,3.79
2019-02-11T21:12:25.198Z,3.76
2019-02-11T21:14:57.393Z,3.70
2019-02-11T21:17:28.998Z,3.64
2019-02-11T21:20:00.711Z,3.64
2019-02-11T21:22:32.345Z,3.66
2019-02-11T21:25:04.521Z,3.63
2019-02-11T21:27:36.141Z,3.62
2019-02-11T21:30:11.927Z,3.60
2019-02-11T21:32:43.481Z,3.62
2019-02-11T21:35:15.117Z,3.65
2019-02-11T21:37:46.931Z,3.67
2019-02-11T21:40:18.576Z,3.70
2019-02-11T21:42:50.228Z,3.70
2019-02-11T21:45:21.824Z,3.73
2019-02-11T21:47:53.541Z,3.77
2019-02-11T21:50:26.975Z,3.79
2019-02-11T21:52:58.403Z,3.78
2019-02-11T21:55:30.119Z,3.83
2019-02-11T21:58:01.702Z,3.83
2019-02-11T22:00:33.347Z,3.86
2019-02-11T22:03:05.123Z,3.88
2019-02-11T22:05:36.785Z,3.84
2019-02-11T22:08:08.425Z,3.81
2019-02-11T22:10:40.012Z,3.81
2019-02-11T22:13:11.751Z,3.89
2019-02-11T22:15:44.612Z,3.88
2019-02-11T22:18:16.817Z,3.88
2019-02-11T22:20:48.558Z,3.82
2019-02-11T22:23:20.213Z,3.83
2019-02-11T22:25:51.805Z,3.84
2019-02-11T22:28:23.455Z,3.84
2019-02-11T22:30:55.641Z,3.83
2019-02-11T22:33:27.321Z,3.87
2019-02-11T22:35:59.065Z,3.90
2019-02-11T22:38:30.648Z,3.84
2019-02-11T22:41:02.312Z,3.89
2019-02-11T22:43:34.197Z,3.93
2019-02-11T22:46:06.464Z,3.87
2019-02-11T22:48:38.071Z,3.89
2019-02-11T22:51:11.288Z,3.88
2019-02-11T22:53:43.940Z,3.88
2019-02-11T22:56:15.497Z,3.88
2019-02-11T22:58:48.642Z,3.87
2019-02-11T23:01:20.290Z,3.87
2019-02-11T23:03:52.018Z,3.91
2019-02-11T23:06:23.598Z,3.84
2019-02-11T23:08:55.247Z,3.83
2019-02-11T23:11:26.907Z,3.79
2019-02-11T23:13:58.494Z,3.74
2019-02-11T23:16:30.087Z,3.68
2019-02-11T23:19:01.724Z,3.68
2019-02-11T23:21:33.383Z,3.67
2019-02-11T23:24:05.067Z,3.65
2019-02-11T23:26:38.333Z,3.69
2019-02-11T23:29:10.001Z,3.64
2019-02-11T23:31:41.645Z,3.53
2019-02-11T23:34:13.310Z,3.56
2019-02-11T23:36:44.963Z,3.51
2019-02-11T23:39:16.735Z,3.49
2019-02-11T23:41:48.350Z,3.44
2019-02-11T23:44:20.010Z,3.60
2019-02-11T23:46:51.605Z,3.45
2019-02-11T23:49:23.177Z,3.31
2019-02-11T23:51:54.819Z,3.29
2019-02-11T23:54:26.445Z,3.30
2019-02-11T23:56:58.011Z,3.26
2019-02-11T23:59:29.639Z,3.16
